createdAt,value
2022-12-22T00:02:07.180Z,12.57
2022-12-22T00:04:53.103Z,12.87
2022-12-22T00:07:40.077Z,16.23
2022-12-22T00:10:28.989Z,17.37
2022-12-22T00:13:15.079Z,14.80
2022-12-22T00:16:00.623Z,17.70
2022-12-22T00:18:46.418Z,17.03
2022-12-22T00:21:32.863Z,20.63
2022-12-22T00:24:20.380Z,15.93
2022-12-22T00:27:06.840Z,18.67
2022-12-22T00:29:59.852Z,18.83
2022-12-22T00:32:52.264Z,18.73
2022-12-22T00:35:41.192Z,18.03
2022-12-22T00:38:32.305Z,17.67
2022-12-22T00:41:19.560Z,20.63
2022-12-22T00:44:04.989Z,18.77
2022-12-22T00:46:52.369Z,19.87
2022-12-22T00:49:38.389Z,19.30
2022-12-22T00:52:24.212Z,18.20
2022-12-22T00:55:12.691Z,17.20
2022-12-22T00:58:01.421Z,21.63
2022-12-22T01:00:47.540Z,23.37
2022-12-22T01:03:33.468Z,19.93
2022-12-22T01:06:21.028Z,14.73
2022-12-22T01:09:07.463Z,22.03
2022-12-22T01:11:54.033Z,12.83
2022-12-22T01:14:41.008Z,19.43
2022-12-22T01:17:28.304Z,24.17
2022-12-22T01:20:14.243Z,15.20
2022-12-22T01:23:00.406Z,18.50
2022-12-22T01:25:46.110Z,17.57
2022-12-22T01:28:33.294Z,26.57
2022-12-22T01:31:35.094Z,20.73
2022-12-22T01:34:20.809Z,21.13
2022-12-22T01:37:06.533Z,22.70
2022-12-22T01:39:52.153Z,18.80
2022-12-22T01:42:38.264Z,21.63
2022-12-22T01:45:38.479Z,24.97
2022-12-22T01:48:29.804Z,22.83
2022-12-22T01:51:16.176Z,24.87
2022-12-22T01:54:02.393Z,17.73
2022-12-22T01:56:47.839Z,25.77
2022-12-22T01:59:33.642Z,25.83
2022-12-22T02:02:23.715Z,23.40
2022-12-22T02:05:12.976Z,24.17
2022-12-22T02:08:20.372Z,27.93
2022-12-22T02:11:18.157Z,22.23
2022-12-22T02:14:13.782Z,22.53
2022-12-22T02:17:09.949Z,17.83
2022-12-22T02:20:20.362Z,18.23
2022-12-22T02:23:11.930Z,19.00
2022-12-22T02:26:07.369Z,22.30
2022-12-22T02:28:55.390Z,15.87
2022-12-22T02:31:41.653Z,22.67
2022-12-22T02:34:33.029Z,23.67
2022-12-22T02:37:25.689Z,27.10
2022-12-22T02:40:18.587Z,26.10
2022-12-22T02:43:15.096Z,22.43
2022-12-22T02:46:08.251Z,23.23
2022-12-22T02:49:00.631Z,20.50
2022-12-22T02:51:50.502Z,21.83
2022-12-22T02:54:37.339Z,25.73
2022-12-22T02:57:25.169Z,23.37
2022-12-22T03:00:10.658Z,18.83
2022-12-22T03:02:58.117Z,21.07
2022-12-22T03:05:43.827Z,24.77
2022-12-22T03:08:29.653Z,23.20
2022-12-22T03:11:15.223Z,23.13
2022-12-22T03:14:00.906Z,20.27
2022-12-22T03:16:46.702Z,17.63
2022-12-22T03:19:34.011Z,22.20
2022-12-22T03:22:19.713Z,22.10
2022-12-22T03:25:05.464Z,28.00
2022-12-22T03:27:33.674Z,23.60
2022-12-22T03:30:01.876Z,25.23
2022-12-22T03:32:30.095Z,27.40
2022-12-22T03:34:59.648Z,25.63
2022-12-22T03:37:27.882Z,29.00
2022-12-22T03:39:56.163Z,31.13
2022-12-22T03:42:41.957Z,24.27
2022-12-22T03:45:29.042Z,29.67
2022-12-22T03:47:57.253Z,30.80
2022-12-22T03:50:27.113Z,28.97
2022-12-22T03:52:55.473Z,24.27
2022-12-22T03:55:25.165Z,26.17
2022-12-22T03:57:53.469Z,21.23
2022-12-22T04:00:22.276Z,22.70
2022-12-22T04:02:50.626Z,25.00
2022-12-22T04:05:19.127Z,28.80
2022-12-22T04:07:48.872Z,26.27
2022-12-22T04:10:34.727Z,23.63
2022-12-22T04:13:03.201Z,26.27
2022-12-22T04:15:33.168Z,20.57
2022-12-22T04:18:01.462Z,23.67
2022-12-22T04:20:30.303Z,22.57
2022-12-22T04:22:59.991Z,20.63
2022-12-22T04:25:29.761Z,24.83
2022-12-22T04:27:58.197Z,24.00
2022-12-22T04:30:26.767Z,25.53
2022-12-22T04:32:54.979Z,21.17
2022-12-22T04:35:23.381Z,21.07
2022-12-22T04:37:51.564Z,18.83
2022-12-22T04:40:21.269Z,24.07
2022-12-22T04:42:49.593Z,23.57
2022-12-22T04:45:17.904Z,25.90
2022-12-22T04:47:46.094Z,23.80
2022-12-22T04:50:14.548Z,23.27
2022-12-22T04:52:42.831Z,28.13
2022-12-22T04:55:11.229Z,20.87
2022-12-22T04:57:41.331Z,26.30
2022-12-22T05:00:11.314Z,21.50
2022-12-22T05:02:39.656Z,23.90
2022-12-22T05:05:09.598Z,28.23
2022-12-22T05:07:38.332Z,28.00
2022-12-22T05:10:07.225Z,26.77
2022-12-22T05:12:52.766Z,21.30
2022-12-22T05:15:22.554Z,24.67
2022-12-22T05:17:50.878Z,25.53
2022-12-22T05:20:19.705Z,25.60
2022-12-22T05:22:48.939Z,30.13
2022-12-22T05:25:18.085Z,24.27
2022-12-22T05:27:46.468Z,26.20
2022-12-22T05:30:16.204Z,29.20
2022-12-22T05:32:46.255Z,26.93
2022-12-22T05:35:14.875Z,25.80
2022-12-22T05:37:43.175Z,25.50
2022-12-22T05:40:13.533Z,27.13
2022-12-22T05:42:42.270Z,28.00
2022-12-22T05:45:15.538Z,25.40
2022-12-22T05:47:48.846Z,28.67
2022-12-22T05:50:19.840Z,29.73
2022-12-22T05:52:48.367Z,30.30
2022-12-22T05:55:17.285Z,31.17
2022-12-22T05:57:45.847Z,34.13
2022-12-22T06:00:16.581Z,34.80
2022-12-22T06:02:46.992Z,30.93
2022-12-22T06:05:16.539Z,29.77
2022-12-22T06:07:44.649Z,30.93
2022-12-22T06:10:13.818Z,25.50
2022-12-22T06:12:42.498Z,27.60
2022-12-22T06:15:13.835Z,28.03
2022-12-22T06:17:45.054Z,31.73
2022-12-22T06:20:16.096Z,33.20
2022-12-22T06:22:44.458Z,30.20
2022-12-22T06:25:18.189Z,28.10
2022-12-22T06:27:47.575Z,34.40
2022-12-22T06:30:16.821Z,34.97
2022-12-22T06:32:44.998Z,24.10
2022-12-22T06:35:15.016Z,25.63
2022-12-22T06:37:43.446Z,31.53
2022-12-22T06:40:24.192Z,26.00
2022-12-22T06:43:09.085Z,26.70
2022-12-22T06:45:43.605Z,32.10
2022-12-22T06:48:14.193Z,31.00
2022-12-22T06:50:45.380Z,24.93
2022-12-22T06:53:14.651Z,31.10
2022-12-22T06:55:50.076Z,30.80
2022-12-22T06:58:19.696Z,27.20
2022-12-22T07:00:51.639Z,31.13
2022-12-22T07:03:20.594Z,24.13
2022-12-22T07:05:52.299Z,36.53
2022-12-22T07:08:20.895Z,28.17
2022-12-22T07:11:01.416Z,31.93
2022-12-22T07:13:34.167Z,35.37
2022-12-22T07:16:03.749Z,28.10
2022-12-22T07:18:36.254Z,25.20
2022-12-22T07:21:11.498Z,32.17
2022-12-22T07:23:41.126Z,30.27
2022-12-22T07:26:11.313Z,28.93
2022-12-22T07:28:42.632Z,34.67
2022-12-22T07:31:25.847Z,30.07
2022-12-22T07:33:55.317Z,31.73
2022-12-22T07:36:25.385Z,30.57
2022-12-22T07:38:55.293Z,31.70
2022-12-22T07:41:41.146Z,31.77
2022-12-22T07:44:10.436Z,29.60
2022-12-22T07:46:40.712Z,30.37
2022-12-22T07:49:27.336Z,31.07
2022-12-22T07:51:58.861Z,32.27
2022-12-22T07:54:41.405Z,32.60
2022-12-22T07:57:22.796Z,28.10
2022-12-22T07:59:51.445Z,32.53
2022-12-22T08:02:20.948Z,26.90
2022-12-22T08:04:50.230Z,27.53
2022-12-22T08:07:20.305Z,26.50
2022-12-22T08:09:48.644Z,23.30
2022-12-22T08:12:17.987Z,28.97
2022-12-22T08:14:46.465Z,27.40
2022-12-22T08:17:14.855Z,26.20
2022-12-22T08:19:44.497Z,24.13
2022-12-22T08:22:13.371Z,32.07
2022-12-22T08:24:43.353Z,22.93
2022-12-22T08:27:22.259Z,23.87
2022-12-22T08:29:57.012Z,24.77
2022-12-22T08:32:25.742Z,26.10
2022-12-22T08:34:55.612Z,26.13
2022-12-22T08:37:27.824Z,25.43
2022-12-22T08:40:02.693Z,25.50
2022-12-22T08:42:31.341Z,24.43
2022-12-22T08:45:04.082Z,28.57
2022-12-22T08:47:32.665Z,25.10
2022-12-22T08:50:09.479Z,26.27
2022-12-22T08:52:40.634Z,25.67
2022-12-22T08:55:11.677Z,31.20
2022-12-22T08:57:40.043Z,28.43
2022-12-22T09:00:13.856Z,24.27
2022-12-22T09:02:46.639Z,25.03
2022-12-22T09:05:20.331Z,28.43
2022-12-22T09:07:48.792Z,27.47
2022-12-22T09:10:18.994Z,27.37
2022-12-22T09:12:49.328Z,28.70
2022-12-22T09:15:18.516Z,29.00
2022-12-22T09:17:47.213Z,31.90
2022-12-22T09:20:16.081Z,29.20
2022-12-22T09:22:44.377Z,31.00
2022-12-22T09:25:14.537Z,27.83
2022-12-22T09:27:44.602Z,29.27
2022-12-22T09:30:14.408Z,31.67
2022-12-22T09:32:42.926Z,34.57
2022-12-22T09:35:17.822Z,28.93
2022-12-22T09:37:47.071Z,33.40
2022-12-22T09:40:15.767Z,27.70
2022-12-22T09:42:46.101Z,32.77
2022-12-22T09:45:20.324Z,32.53
2022-12-22T09:47:55.090Z,28.93
2022-12-22T09:53:33.096Z,25.40
2022-12-22T09:56:02.126Z,21.83
2022-12-22T09:58:36.641Z,28.13
2022-12-22T10:02:01.695Z,32.50
2022-12-22T10:04:56.006Z,30.70
2022-12-22T10:07:31.183Z,31.20
2022-12-22T10:10:01.428Z,29.23
2022-12-22T10:12:30.418Z,31.10
2022-12-22T10:15:03.035Z,27.60
2022-12-22T10:17:33.780Z,37.47
2022-12-22T10:20:20.937Z,32.70
2022-12-22T10:22:53.970Z,28.07
2022-12-22T10:25:51.859Z,26.97
2022-12-22T10:28:24.845Z,28.80
2022-12-22T10:31:13.499Z,27.43
2022-12-22T10:36:28.279Z,32.97
2022-12-22T10:39:04.277Z,27.93
2022-12-22T10:41:39.344Z,33.47
2022-12-22T10:44:12.289Z,26.30
2022-12-22T10:46:46.059Z,30.87
2022-12-22T10:49:20.180Z,29.90
2022-12-22T10:51:52.486Z,28.43
2022-12-22T10:54:42.854Z,32.00
2022-12-22T10:57:27.837Z,33.73
2022-12-22T10:59:59.595Z,28.17
2022-12-22T11:02:35.106Z,30.57
2022-12-22T11:05:09.541Z,28.10
2022-12-22T11:07:42.268Z,35.33
2022-12-22T11:10:22.658Z,30.40
2022-12-22T11:13:25.285Z,30.47
2022-12-22T11:16:08.177Z,29.43
2022-12-22T11:19:11.310Z,28.00
2022-12-22T11:21:46.920Z,34.93
2022-12-22T11:27:32.024Z,30.27
2022-12-22T11:30:17.517Z,33.97
2022-12-22T11:33:26.536Z,22.50
2022-12-22T11:36:06.514Z,22.87
2022-12-22T11:39:03.874Z,27.47
2022-12-22T11:41:47.929Z,31.17
2022-12-22T11:44:32.726Z,28.43
2022-12-22T11:47:18.630Z,25.23
2022-12-22T11:50:58.325Z,30.37
2022-12-22T11:54:11.908Z,26.87
2022-12-22T11:56:43.687Z,31.30
2022-12-22T12:02:49.875Z,26.00
2022-12-22T12:05:44.367Z,27.73
2022-12-22T12:08:28.060Z,31.83
2022-12-22T12:11:11.731Z,29.53
2022-12-22T12:13:48.929Z,28.00
2022-12-22T12:16:25.050Z,30.43
2022-12-22T12:19:28.971Z,33.03
2022-12-22T12:22:13.706Z,26.60
2022-12-22T12:25:00.832Z,26.27
2022-12-22T12:27:56.205Z,24.87
2022-12-22T12:30:37.888Z,27.87
2022-12-22T12:33:17.020Z,29.20
2022-12-22T12:35:56.143Z,33.10
2022-12-22T12:39:06.197Z,27.97
2022-12-22T12:41:30.279Z,28.17
2022-12-22T12:44:01.841Z,36.00
2022-12-22T12:46:48.858Z,34.67
2022-12-22T12:49:58.681Z,31.70
2022-12-22T12:53:10.743Z,29.83
2022-12-22T12:56:02.992Z,34.17
2022-12-22T12:58:59.253Z,31.73
2022-12-22T13:02:06.121Z,34.33
2022-12-22T13:05:15.314Z,36.07
2022-12-22T13:08:11.712Z,30.87
2022-12-22T13:11:37.949Z,35.30
2022-12-22T13:17:18.539Z,33.87
2022-12-22T13:19:50.425Z,29.53
2022-12-22T13:22:30.034Z,35.80
2022-12-22T13:25:23.832Z,32.27
2022-12-22T13:27:53.665Z,33.80
2022-12-22T13:30:24.550Z,26.80
2022-12-22T13:32:57.120Z,31.73
2022-12-22T13:35:37.401Z,29.47
2022-12-22T13:38:32.553Z,34.37
2022-12-22T13:41:02.864Z,34.33
2022-12-22T13:43:33.539Z,33.93
2022-12-22T13:46:06.977Z,27.93
2022-12-22T13:48:45.111Z,28.63
2022-12-22T13:51:22.202Z,27.33
2022-12-22T13:54:08.407Z,28.37
2022-12-22T13:56:41.302Z,25.67
2022-12-22T13:59:23.828Z,28.10
2022-12-22T14:02:02.734Z,28.00
2022-12-22T14:04:32.721Z,33.47
2022-12-22T14:07:13.673Z,26.83
2022-12-22T14:09:46.260Z,25.57
2022-12-22T14:12:23.691Z,34.63
2022-12-22T14:17:57.273Z,35.07
2022-12-22T14:20:28.882Z,30.90
2022-12-22T14:23:03.469Z,29.20
2022-12-22T14:25:35.696Z,31.73
2022-12-22T14:28:08.117Z,24.47
2022-12-22T14:30:39.333Z,24.47
2022-12-22T14:33:27.695Z,25.03
2022-12-22T14:36:15.090Z,28.20
2022-12-22T14:38:47.470Z,30.33
2022-12-22T14:41:39.486Z,30.33
2022-12-22T14:44:13.644Z,28.07
2022-12-22T14:46:42.577Z,26.77
2022-12-22T14:49:16.298Z,26.20
2022-12-22T14:51:44.557Z,29.17
2022-12-22T14:54:23.580Z,20.63
2022-12-22T14:56:54.248Z,22.63
2022-12-22T14:59:25.833Z,26.77
2022-12-22T15:02:03.413Z,24.87
2022-12-22T15:04:32.993Z,24.90
2022-12-22T15:07:45.710Z,21.03
2022-12-22T15:10:15.530Z,27.57
2022-12-22T15:12:45.086Z,28.60
2022-12-22T15:15:20.030Z,28.60
2022-12-22T15:17:50.447Z,31.00
2022-12-22T15:20:22.372Z,32.50
2022-12-22T15:22:51.020Z,24.40
2022-12-22T15:25:22.864Z,29.77
2022-12-22T15:27:52.187Z,30.80
2022-12-22T15:30:28.838Z,22.87
2022-12-22T15:32:57.843Z,22.17
2022-12-22T15:35:31.728Z,24.67
2022-12-22T15:38:00.069Z,26.10
2022-12-22T15:40:30.347Z,22.53
2022-12-22T15:42:58.793Z,24.27
2022-12-22T15:45:27.069Z,24.90
2022-12-22T15:47:57.216Z,28.13
2022-12-22T15:50:36.750Z,30.87
2022-12-22T15:53:09.204Z,22.33
2022-12-22T15:55:43.244Z,24.33
2022-12-22T15:58:14.623Z,24.43
2022-12-22T16:00:42.906Z,24.30
2022-12-22T16:03:13.363Z,20.77
2022-12-22T16:05:42.969Z,25.27
2022-12-22T16:08:18.311Z,32.20
2022-12-22T16:10:49.078Z,28.57
2022-12-22T16:13:18.410Z,25.50
2022-12-22T16:15:46.738Z,31.03
2022-12-22T16:18:15.075Z,24.70
2022-12-22T16:20:45.152Z,30.23
2022-12-22T16:23:17.847Z,23.13
2022-12-22T16:25:48.921Z,23.93
2022-12-22T16:28:20.121Z,26.37
2022-12-22T16:30:48.694Z,28.27
2022-12-22T16:33:17.824Z,24.93
2022-12-22T16:35:46.007Z,23.90
2022-12-22T16:38:19.345Z,26.03
2022-12-22T16:40:53.177Z,27.20
2022-12-22T16:46:15.950Z,27.43
2022-12-22T16:48:46.484Z,24.67
2022-12-22T16:51:18.792Z,28.03
2022-12-22T16:53:47.224Z,30.63
2022-12-22T16:56:23.458Z,29.80
2022-12-22T16:58:52.101Z,31.70
2022-12-22T17:01:25.517Z,26.43
2022-12-22T17:03:57.919Z,22.10
2022-12-22T17:06:26.377Z,26.57
2022-12-22T17:08:55.281Z,28.00
2022-12-22T17:11:29.580Z,33.23
2022-12-22T17:14:04.966Z,27.57
2022-12-22T17:16:33.850Z,28.97
2022-12-22T17:19:02.431Z,27.63
2022-12-22T17:21:31.345Z,26.73
2022-12-22T17:24:04.524Z,24.40
2022-12-22T17:26:35.738Z,31.53
2022-12-22T17:29:04.207Z,26.40
2022-12-22T17:31:33.074Z,25.03
2022-12-22T17:34:01.402Z,30.00
2022-12-22T17:36:34.813Z,33.63
2022-12-22T17:39:05.362Z,32.63
2022-12-22T17:41:35.009Z,27.67
2022-12-22T17:44:03.501Z,27.63
2022-12-22T17:46:31.833Z,29.60
2022-12-22T17:49:00.268Z,27.20
2022-12-22T17:51:30.774Z,37.73
2022-12-22T17:54:00.192Z,29.00
2022-12-22T17:56:30.320Z,26.13
2022-12-22T17:59:00.226Z,30.17
2022-12-22T18:01:31.169Z,26.00
2022-12-22T18:03:59.795Z,26.60
2022-12-22T18:06:31.911Z,24.80
2022-12-22T18:09:00.759Z,28.60
2022-12-22T18:11:29.563Z,23.40
2022-12-22T18:14:00.167Z,23.33
2022-12-22T18:16:29.578Z,23.47
2022-12-22T18:18:57.888Z,26.17
2022-12-22T18:21:26.821Z,26.20
2022-12-22T18:23:55.173Z,24.53
2022-12-22T18:26:25.886Z,19.03
2022-12-22T18:28:55.077Z,23.43
2022-12-22T18:31:25.975Z,23.43
2022-12-22T18:33:54.821Z,21.53
2022-12-22T18:36:28.896Z,25.80
2022-12-22T18:38:58.229Z,22.57
2022-12-22T18:41:28.091Z,20.07
2022-12-22T18:43:56.660Z,26.83
2022-12-22T18:46:26.369Z,24.17
2022-12-22T18:48:57.819Z,23.47
2022-12-22T18:51:28.969Z,23.27
2022-12-22T18:53:57.436Z,27.30
2022-12-22T18:56:25.845Z,21.77
2022-12-22T18:58:54.846Z,19.27
2022-12-22T19:01:25.497Z,22.80
2022-12-22T19:03:59.859Z,19.23
2022-12-22T19:06:28.141Z,19.13
2022-12-22T19:08:56.287Z,19.10
2022-12-22T19:11:28.478Z,15.53
2022-12-22T19:13:58.420Z,18.80
2022-12-22T19:16:28.211Z,14.97
2022-12-22T19:19:00.219Z,17.57
2022-12-22T19:21:28.728Z,18.63
2022-12-22T19:23:56.960Z,16.80
2022-12-22T19:26:28.092Z,19.97
2022-12-22T19:29:00.860Z,14.27
2022-12-22T19:31:32.280Z,15.37
2022-12-22T19:34:05.513Z,19.50
2022-12-22T19:36:34.868Z,17.13
2022-12-22T19:39:05.021Z,15.27
2022-12-22T19:41:42.249Z,16.27
2022-12-22T19:44:22.424Z,18.33
2022-12-22T19:46:51.689Z,15.67
2022-12-22T19:49:23.628Z,18.87
2022-12-22T19:51:52.385Z,18.40
2022-12-22T19:54:20.703Z,14.47
2022-12-22T19:56:52.469Z,13.33
2022-12-22T19:59:35.598Z,15.43
2022-12-22T20:02:40.221Z,13.20
2022-12-22T20:05:30.504Z,14.53
2022-12-22T20:08:14.774Z,16.37
2022-12-22T20:10:45.703Z,14.37
2022-12-22T20:13:22.125Z,17.73
2022-12-22T20:15:57.378Z,18.03
2022-12-22T20:18:27.780Z,20.23
2022-12-22T20:21:04.092Z,16.13
2022-12-22T20:23:37.540Z,16.87
2022-12-22T20:26:11.023Z,18.60
2022-12-22T20:28:40.878Z,15.20
2022-12-22T20:31:16.522Z,15.30
2022-12-22T20:36:41.051Z,16.07
2022-12-22T20:39:23.644Z,17.13
2022-12-22T20:41:53.635Z,17.77
2022-12-22T20:44:23.374Z,17.60
2022-12-22T20:46:51.804Z,16.80
2022-12-22T20:49:20.769Z,16.63
2022-12-22T20:51:50.453Z,18.40
2022-12-22T20:54:18.696Z,16.23
2022-12-22T20:56:47.417Z,14.77
2022-12-22T20:59:17.528Z,13.20
2022-12-22T21:01:46.261Z,15.27
2022-12-22T21:04:15.259Z,13.20
2022-12-22T21:06:50.763Z,13.20
2022-12-22T21:09:22.121Z,13.23
2022-12-22T21:11:51.327Z,13.47
2022-12-22T21:14:19.610Z,15.00
2022-12-22T21:16:48.052Z,10.43
2022-12-22T21:19:18.586Z,14.57
2022-12-22T21:21:47.028Z,17.03
2022-12-22T21:24:15.312Z,16.43
2022-12-22T21:26:48.805Z,12.07
2022-12-22T21:29:21.620Z,7.93
2022-12-22T21:31:49.948Z,10.80
2022-12-22T21:34:18.691Z,8.47
2022-12-22T21:36:50.069Z,10.23
2022-12-22T21:39:34.443Z,9.43
2022-12-22T21:42:05.286Z,7.30
2022-12-22T21:44:36.294Z,8.90
2022-12-22T21:47:05.000Z,5.63
2022-12-22T21:49:34.885Z,9.33
2022-12-22T21:52:03.266Z,5.77
2022-12-22T21:54:31.521Z,7.03
2022-12-22T21:56:59.789Z,6.90
2022-12-22T21:59:29.706Z,7.37
2022-12-22T22:01:58.062Z,7.37
2022-12-22T22:04:26.503Z,9.03
2022-12-22T22:06:54.826Z,8.27
2022-12-22T22:09:25.276Z,7.70
2022-12-22T22:12:11.219Z,6.27
2022-12-22T22:14:40.861Z,6.57
2022-12-22T22:17:11.582Z,5.03
2022-12-22T22:19:39.823Z,8.90
2022-12-22T22:22:08.912Z,4.53
2022-12-22T22:24:40.668Z,6.50
2022-12-22T22:27:10.186Z,6.30
2022-12-22T22:29:38.712Z,6.20
2022-12-22T22:32:11.645Z,4.20
2022-12-22T22:34:40.061Z,8.20
2022-12-22T22:37:11.254Z,8.67
2022-12-22T22:39:40.018Z,15.50
2022-12-22T22:42:10.956Z,6.67
2022-12-22T22:44:39.130Z,18.37
2022-12-22T22:47:08.934Z,17.33
2022-12-22T22:49:37.188Z,6.50
2022-12-22T22:52:05.845Z,4.03
2022-12-22T22:54:34.359Z,4.90
2022-12-22T22:57:02.464Z,8.90
2022-12-22T22:59:30.652Z,5.50
2022-12-22T23:01:59.191Z,8.30
2022-12-22T23:04:29.033Z,5.90
2022-12-22T23:06:57.325Z,7.10
2022-12-22T23:09:25.874Z,5.93
2022-12-22T23:11:54.953Z,4.83
2022-12-22T23:14:23.517Z,8.07
2022-12-22T23:16:52.415Z,4.77
2022-12-22T23:19:21.048Z,2.70
2022-12-22T23:21:50.643Z,5.87
2022-12-22T23:24:18.952Z,5.57
2022-12-22T23:26:47.096Z,4.47
2022-12-22T23:29:15.218Z,8.93
2022-12-22T23:31:43.841Z,6.93
2022-12-22T23:34:12.641Z,11.30
2022-12-22T23:36:40.890Z,9.93
2022-12-22T23:39:11.013Z,6.43
2022-12-22T23:41:39.212Z,10.80
2022-12-22T23:44:07.503Z,9.70
2022-12-22T23:46:38.543Z,10.23
2022-12-22T23:49:06.997Z,8.53
2022-12-22T23:51:35.464Z,7.03
2022-12-22T23:54:03.823Z,9.00
2022-12-22T23:56:33.779Z,4.77
2022-12-22T23:59:01.992Z,6.70
